Data for 03/29/2014

Time Sea-Level Adjusted Pressure Absolute Pressure Temperature Relative Humidity Dew Point   
(mb) (inHg) (mb) (inHg) (C) (F) (%) (C) (F)
00:05 1014 29.94 843 24.89 7.1 44.8 44 -4.4 24.1
00:10 1014 29.94 843 24.89 7.1 44.8 44 -4.4 24.1
00:15 1013 29.91 843 24.89 7.1 44.8 43 -4.6 23.8
00:20 1013 29.91 843 24.89 7.2 44.9 42 -4.8 23.4
00:25 1013 29.91 843 24.89 7.3 45.2 43 -4.6 23.8
00:30 1013 29.91 843 24.89 7.2 45 44 -4.3 24.2
00:35 1013 29.91 842 24.86 7 44.6 44 -4.3 24.3
00:40 1013 29.91 842 24.86 7.1 44.8 43 -4.6 23.7
00:45 1013 29.91 842 24.86 7.2 45 42 -4.8 23.3
00:50 1013 29.91 842 24.86 7.4 45.2 42 -4.6 23.7
00:55 1013 29.91 842 24.86 7.3 45.1 44 -4.2 24.4
01:00 1013 29.91 842 24.86 7.3 45.1 43 -4.4 24
01:05 1013 29.91 842 24.86 7.2 44.9 42 -4.8 23.4
01:10 1013 29.91 842 24.86 7.2 45 43 -4.7 23.6
01:15 1013 29.91 842 24.86 7.2 44.9 43 -4.7 23.6
01:20 1013 29.91 842 24.86 7.1 44.8 42 -4.8 23.3
01:25 1013 29.91 842 24.86 7.3 45.1 42 -4.8 23.4
01:30 1013 29.91 842 24.86 7 44.6 43 -4.8 23.3
01:35 1013 29.91 842 24.86 7 44.6 42 -4.9 23.1
01:40 1013 29.91 842 24.86 7.1 44.8 41 -5.2 22.6
01:45 1013 29.91 842 24.86 7.6 45.6 40 -5.2 22.7
01:50 1013 29.91 842 24.86 7.7 45.8 42 -4.4 24.1
01:55 1013 29.91 842 24.86 7.6 45.6 41 -4.8 23.4
02:00 1013 29.91 842 24.86 7.6 45.7 41 -4.7 23.6
02:05 1013 29.91 842 24.86 7.7 45.8 42 -4.5 24
02:10 1013 29.91 842 24.86 7.3 45.2 43 -4.5 23.9
02:15 1013 29.91 842 24.86 7.3 45.1 42 -4.8 23.4
02:20 1012 29.88 842 24.86 7.6 45.7 40 -5 23
02:25 1012 29.88 842 24.86 7.5 45.5 43 -4.3 24.3
02:30 1012 29.88 841 24.83 7.3 45.1 41 -5 23
02:35 1012 29.88 841 24.83 7.5 45.5 42 -4.7 23.5
02:40 1012 29.88 841 24.83 7.7 45.9 40 -5 23
02:45 1012 29.88 841 24.83 7.7 45.8 42 -4.6 23.8
02:50 1012 29.88 841 24.83 7.6 45.7 41 -4.9 23.2
02:55 1012 29.88 841 24.83 7.7 45.9 41 -4.7 23.5
03:00 1012 29.88 841 24.83 7.8 46 41 -4.8 23.3
03:05 1012 29.88 841 24.83 7.8 46.1 40 -4.9 23.2
03:10 1012 29.88 841 24.83 7.8 46 40 -4.9 23.1
03:15 1012 29.88 841 24.83 7.7 45.9 39 -5.4 22.3
03:20 1012 29.88 841 24.83 7.9 46.3 38 -5.4 22.3
03:25 1011 29.85 841 24.83 7.9 46.3 39 -5.2 22.6
03:30 1011 29.85 841 24.83 7.6 45.7 39 -5.3 22.4
03:35 1011 29.85 841 24.83 7.6 45.8 39 -5.4 22.2
03:40 1011 29.85 841 24.83 7.6 45.7 39 -5.5 22.1
03:45 1011 29.85 841 24.83 7.6 45.7 38 -5.8 21.5
03:50 1011 29.85 841 24.83 7.8 46 37 -6.1 21.1
03:55 1011 29.85 840 24.81 7.9 46.1 38 -5.5 22.1
04:00 1011 29.85 840 24.81 7.7 45.8 38 -5.7 21.8
04:05 1011 29.85 840 24.81 7.5 45.4 39 -5.5 22.1
04:10 1011 29.85 840 24.81 7.2 45 40 -5.6 22
04:15 1011 29.85 840 24.81 7.1 44.8 41 -5.3 22.4
04:20 1011 29.85 840 24.81 6.9 44.4 42 -5.2 22.6
04:25 1011 29.85 840 24.81 6.5 43.7 44 -4.9 23.1
04:30 1011 29.85 840 24.81 6.4 43.5 44 -5.1 22.8
04:35 1011 29.85 840 24.81 6.3 43.4 44 -5 23
04:40 1011 29.85 840 24.81 6.5 43.7 43 -5.2 22.7
04:45 1011 29.85 840 24.81 6.4 43.5 45 -4.8 23.3
04:50 1011 29.85 840 24.81 6.1 43.1 46 -4.7 23.6
04:55 1011 29.85 840 24.81 6 42.8 47 -4.5 23.8
05:00 1011 29.85 840 24.81 6 42.8 43 -5.5 22
05:05 1011 29.85 840 24.81 6.5 43.6 43 -5.2 22.6
05:10 1011 29.85 840 24.81 6.5 43.7 44 -4.9 23.1
05:15 1011 29.85 840 24.81 6.2 43.2 45 -4.8 23.4
05:20 1011 29.85 840 24.81 6.2 43.1 41 -6.2 20.9
05:25 1011 29.85 840 24.81 7.1 44.8 39 -6.1 21.1
05:30 1011 29.85 840 24.81 7.5 45.5 36 -6.5 20.2
05:35 1011 29.85 840 24.81 8.1 46.6 35 -6.5 20.3
05:40 1011 29.85 840 24.81 8 46.3 38 -5.3 22.4
05:45 1011 29.85 840 24.81 6.5 43.7 47 -3.9 24.9
05:50 1011 29.85 840 24.81 5.5 41.9 49 -4.4 24.1
05:55 1011 29.85 840 24.81 5.4 41.7 49 -4.5 23.9
06:00 1011 29.85 840 24.81 5.4 41.7 48 -4.8 23.4
06:05 1010 29.83 840 24.81 5.6 42 44 -5.6 21.9
06:10 1010 29.83 840 24.81 6.4 43.6 36 -7.5 18.5
06:15 1010 29.83 840 24.81 8.3 46.9 34 -6.8 19.7
06:20 1010 29.83 840 24.81 8.1 46.6 35 -6.6 20.2
06:25 1010 29.83 840 24.81 8.1 46.5 36 -6.1 20.9
06:30 1010 29.83 840 24.81 8.1 46.7 33 -7.2 19
06:35 1010 29.83 840 24.81 8.5 47.2 34 -6.6 20
06:40 1010 29.83 839 24.78 8.3 47 33 -6.9 19.7
06:45 1010 29.83 839 24.78 8.7 47.7 31 -7.6 18.3
06:50 1010 29.83 839 24.78 9.1 48.3 32 -6.7 20
06:55 1010 29.83 839 24.78 8.8 47.9 32 -7 19.4
07:00 1010 29.83 839 24.78 8.9 48 32 -7 19.4
07:05 1010 29.83 839 24.78 9.1 48.3 32 -6.8 19.8
07:10 1010 29.83 839 24.78 9 48.1 31 -7.2 19.1
07:15 1010 29.83 839 24.78 8.8 47.9 32 -6.8 19.8
07:20 1010 29.83 839 24.78 8.9 48 33 -6.7 20
07:25 1010 29.83 839 24.78 8.7 47.7 33 -6.9 19.6
07:30 1010 29.83 839 24.78 8.9 48.1 32 -7 19.5
07:35 1010 29.83 839 24.78 8.7 47.6 33 -6.6 20.1
07:40 1010 29.83 839 24.78 8.8 47.9 34 -6.2 20.9
07:45 1010 29.83 839 24.78 8.5 47.2 33 -6.8 19.8
07:50 1010 29.83 839 24.78 8.6 47.5 34 -6.4 20.4
07:55 1010 29.83 839 24.78 8.4 47 36 -6 21.2
08:00 1010 29.83 839 24.78 8.4 47.1 36 -6 21.2
08:05 1010 29.83 839 24.78 8.8 47.8 33 -6.8 19.8
08:10 1010 29.83 839 24.78 9 48.1 34 -6.1 21
08:15 1010 29.83 839 24.78 9 48.2 34 -6 21.1
08:20 1010 29.83 839 24.78 8.9 48 35 -5.6 22
08:25 1010 29.83 839 24.78 8.6 47.5 37 -5.3 22.5
08:30 1010 29.83 839 24.78 8.5 47.3 39 -4.6 23.7
08:35 1010 29.83 839 24.78 8.3 47 40 -4.5 24
08:40 1010 29.83 839 24.78 8.3 47 41 -4.1 24.6
08:45 1010 29.83 839 24.78 8.1 46.5 42 -4.1 24.6
08:50 1009 29.8 839 24.78 8 46.3 43 -3.9 24.9
08:55 1009 29.8 839 24.78 7.9 46.2 42 -4.1 24.6
09:00 1009 29.8 839 24.78 8.1 46.6 41 -4.2 24.4
09:05 1009 29.8 839 24.78 8.2 46.7 42 -3.8 25.1
09:10 1009 29.8 839 24.78 8.1 46.6 44 -3.5 25.6
09:15 1009 29.8 838 24.75 7.8 46 44 -3.6 25.5
09:20 1009 29.8 838 24.75 7.7 45.9 46 -3 26.5
09:25 1009 29.8 838 24.75 7.5 45.6 47 -3.1 26.4
09:30 1009 29.8 838 24.75 7.7 45.9 45 -3.5 25.7
09:35 1009 29.8 838 24.75 7.8 46 45 -3.5 25.7
09:40 1009 29.8 839 24.78 7.8 46.1 43 -3.8 25.1
09:45 1009 29.8 839 24.78 8.2 46.7 44 -3.3 26
09:50 1009 29.8 839 24.78 8.1 46.5 42 -3.9 24.9
09:55 1009 29.8 839 24.78 8.1 46.6 43 -3.6 25.6
10:00 1010 29.83 839 24.78 7.8 46 46 -3 26.6
10:05 1010 29.83 839 24.78 7.6 45.6 46 -3.4 25.9
10:10 1010 29.83 839 24.78 7.5 45.4 47 -3.2 26.2
10:15 1010 29.83 839 24.78 7.5 45.6 44 -3.9 25.1
10:20 1010 29.83 839 24.78 7.6 45.6 46 -3.3 26
10:25 1010 29.83 839 24.78 7.6 45.6 46 -3.2 26.2
10:30 1010 29.83 839 24.78 7.7 45.8 47 -3 26.7
10:35 1010 29.83 839 24.78 7.5 45.6 46 -3.4 25.8
10:40 1010 29.83 839 24.78 7.9 46.3 45 -3.4 25.9
10:45 1010 29.83 839 24.78 7.9 46.2 45 -3.4 25.9
10:50 1010 29.83 839 24.78 8.1 46.6 43 -3.7 25.3
10:55 1010 29.83 839 24.78 8.3 46.9 44 -3.3 26.1
11:00 1010 29.83 839 24.78 8.2 46.7 46 -2.7 27.1
11:05 1010 29.83 839 24.78 8 46.3 47 -2.7 27.2
11:10 1010 29.83 839 24.78 7.9 46.2 47 -2.7 27.1
11:15 1010 29.83 839 24.78 7.9 46.2 46 -2.9 26.9
11:20 1010 29.83 840 24.81 7.9 46.2 47 -2.7 27.2
11:25 1010 29.83 840 24.81 7.9 46.2 47 -2.8 27
11:30 1010 29.83 840 24.81 7.9 46.1 48 -2.5 27.4
11:35 1011 29.85 840 24.81 7.9 46.3 46 -2.9 26.9
11:40 1011 29.85 840 24.81 8 46.4 48 -2.4 27.7
11:45 1011 29.85 840 24.81 7.9 46.2 48 -2.5 27.6
11:50 1011 29.85 841 24.83 7.5 45.6 60 0.3 32.5
11:55 1011 29.85 841 24.83 6.1 43 65 -0 32
12:00 1011 29.85 841 24.83 5.2 41.4 72 0.7 33.2
12:05 1011 29.85 841 24.83 4.4 39.9 75 0.4 32.7
12:10 1012 29.88 841 24.83 4 39.2 74 -0.1 31.8
12:15 1012 29.88 841 24.83 4.1 39.3 74 -0.1 31.8
12:20 1012 29.88 841 24.83 4 39.2 74 -0.2 31.7
12:25 1012 29.88 841 24.83 4.1 39.3 75 0.1 32.1
12:30 1012 29.88 841 24.83 4 39.3 80 0.9 33.6
12:35 1012 29.88 841 24.83 3.8 38.9 83 1.2 34.2
12:40 1012 29.88 841 24.83 3.6 38.6 85 1.3 34.3
12:45 1012 29.88 841 24.83 3.4 38.1 87 1.4 34.6
12:50 1012 29.88 841 24.83 3.2 37.7 88 1.4 34.5
12:55 1012 29.88 841 24.83 2.9 37.2 89 1.2 34.1
13:00 1012 29.88 841 24.83 2.8 37 89 1.1 34
13:05 1012 29.88 842 24.86 2.8 37 89 1.1 34.1
13:10 1012 29.88 842 24.86 2.8 37 89 1.2 34.1
13:15 1012 29.88 841 24.83 2.7 36.8 89 1.1 33.9
13:20 1012 29.88 841 24.83 2.5 36.5 89 0.9 33.6
13:25 1012 29.88 841 24.83 2.3 36.1 90 0.8 33.5
13:30 1012 29.88 841 24.83 1.9 35.4 91 0.6 33.2
13:35 1012 29.88 841 24.83 1.6 34.9 93 0.5 32.9
13:40 1012 29.88 841 24.83 1.6 34.9 93 0.6 33.2
13:45 1012 29.88 841 24.83 1.9 35.5 93 0.9 33.5
13:50 1012 29.88 841 24.83 2.1 35.7 92 0.9 33.7
13:55 1012 29.88 841 24.83 2.2 36 92 1 33.9
14:00 1012 29.88 841 24.83 2.2 36 89 0.7 33.2
14:05 1012 29.88 841 24.83 1.6 35 92 0.4 32.8
14:10 1012 29.88 841 24.83 1.4 34.5 93 0.3 32.6
14:15 1012 29.88 841 24.83 1.3 34.3 93 0.3 32.6
14:20 1012 29.88 841 24.83 1.2 34.2 93 0.2 32.4
14:25 1012 29.88 841 24.83 1.5 34.7 90 0.1 32.2
14:30 1012 29.88 841 24.83 1.5 34.7 92 0.3 32.5
14:35 1012 29.88 841 24.83 1.5 34.7 92 0.3 32.5
14:40 1012 29.88 841 24.83 2 35.7 86 0 32
14:45 1012 29.88 841 24.83 2.9 37.2 83 0.3 32.5
14:50 1011 29.85 841 24.83 3.1 37.6 83 0.6 33
14:55 1011 29.85 841 24.83 3.2 37.8 82 0.5 32.9
15:00 1011 29.85 841 24.83 3.3 37.9 80 0.2 32.3
15:05 1011 29.85 841 24.83 3.5 38.2 78 -0 32
15:10 1011 29.85 841 24.83 3.5 38.4 77 -0.2 31.7
15:15 1012 29.88 841 24.83 3.7 38.7 74 -0.4 31.2
15:20 1012 29.88 841 24.83 4 39.1 74 -0.2 31.6
15:25 1012 29.88 841 24.83 3.9 39.1 76 0 32
15:30 1011 29.85 841 24.83 3.8 38.8 71 -1 30.2
15:35 1011 29.85 841 24.83 4 39.3 75 -0 32
15:40 1012 29.88 841 24.83 3.7 38.6 74 -0.5 31.1
15:45 1012 29.88 841 24.83 3.6 38.6 74 -0.6 30.9
15:50 1012 29.88 841 24.83 3.7 38.6 73 -0.7 30.8
15:55 1012 29.88 841 24.83 3.8 38.9 75 -0.2 31.6
16:00 1012 29.88 841 24.83 3.7 38.6 76 -0.2 31.7
16:05 1012 29.88 841 24.83 3.9 39.1 73 -0.4 31.2
16:10 1012 29.88 841 24.83 4.4 39.9 71 -0.4 31.3
16:15 1012 29.88 841 24.83 4.4 39.9 73 0 32
16:20 1012 29.88 841 24.83 4.3 39.7 72 -0.3 31.5
16:25 1012 29.88 842 24.86 4.2 39.6 72 -0.5 31.2
16:30 1013 29.91 842 24.86 4.3 39.7 74 0.1 32.2
16:35 1012 29.88 841 24.83 4 39.1 74 -0.2 31.7
16:40 1012 29.88 841 24.83 3.4 38.2 78 -0.1 31.8
16:45 1012 29.88 841 24.83 3.1 37.6 78 -0.3 31.5
16:50 1012 29.88 841 24.83 2.9 37.3 80 -0.2 31.6
16:55 1012 29.88 841 24.83 2.7 36.9 81 -0.2 31.6
17:00 1012 29.88 841 24.83 2.6 36.7 77 -1 30.2
17:05 1012 29.88 841 24.83 3.1 37.6 79 -0.3 31.5
17:10 1012 29.88 842 24.86 2.7 36.9 81 -0.2 31.6
17:15 1012 29.88 842 24.86 2.8 37 76 -1.1 30
17:20 1012 29.88 842 24.86 3.6 38.5 71 -1.2 29.8
17:25 1013 29.91 842 24.86 3.9 39 70 -1 30.2
17:30 1013 29.91 842 24.86 4 39.3 69 -1.1 30.1
17:35 1013 29.91 842 24.86 4 39.3 73 -0.3 31.4
17:40 1013 29.91 842 24.86 3.4 38.2 79 0.2 32.3
17:45 1013 29.91 842 24.86 2.8 37.1 82 -0 32
17:50 1013 29.91 842 24.86 2.4 36.4 85 0.1 32.2
17:55 1012 29.88 842 24.86 2.4 36.2 83 -0.3 31.5
18:00 1012 29.88 842 24.86 2.5 36.5 82 -0.3 31.4
18:05 1012 29.88 842 24.86 2.5 36.5 80 -0.6 30.8
18:10 1012 29.88 842 24.86 2.6 36.6 80 -0.6 30.9
18:15 1012 29.88 841 24.83 2.7 36.9 77 -0.9 30.5
18:20 1012 29.88 841 24.83 3 37.3 76 -0.9 30.4
18:25 1012 29.88 841 24.83 3 37.5 71 -1.7 29
18:30 1012 29.88 841 24.83 3.4 38.1 71 -1.4 29.5
18:35 1012 29.88 841 24.83 3.3 38 74 -1 30.3
18:40 1012 29.88 841 24.83 3.1 37.5 74 -1.2 29.9
18:45 1012 29.88 841 24.83 3.1 37.5 74 -1.2 29.9
18:50 1012 29.88 841 24.83 3.1 37.5 75 -1 30.2
18:55 1012 29.88 841 24.83 3 37.3 77 -0.7 30.7
19:00 1012 29.88 841 24.83 2.9 37.3 78 -0.5 31
19:05 1012 29.88 841 24.83 3 37.4 78 -0.5 31.1
19:10 1012 29.88 841 24.83 3.1 37.5 78 -0.4 31.3
19:15 1012 29.88 841 24.83 2.9 37.2 79 -0.4 31.2
19:20 1012 29.88 841 24.83 2.8 37 77 -0.8 30.6
19:25 1012 29.88 841 24.83 2.8 37 77 -0.9 30.5
19:30 1012 29.88 841 24.83 3.1 37.5 73 -1.3 29.6
19:35 1012 29.88 841 24.83 3.7 38.6 67 -2 28.5
19:40 1012 29.88 841 24.83 4.3 39.8 66 -1.5 29.4
19:45 1012 29.88 841 24.83 4.3 39.7 70 -0.7 30.8
19:50 1012 29.88 841 24.83 3.7 38.6 74 -0.5 31.1
19:55 1012 29.88 841 24.83 3.4 38.2 75 -0.6 30.9
20:00 1012 29.88 841 24.83 3.3 38 76 -0.6 31
20:05 1012 29.88 841 24.83 3.3 37.9 76 -0.5 31
20:10 1012 29.88 841 24.83 3.2 37.7 77 -0.5 31.2
20:15 1012 29.88 841 24.83 3.1 37.5 76 -0.7 30.7
20:20 1012 29.88 841 24.83 3.1 37.5 77 -0.7 30.8
20:25 1012 29.88 841 24.83 3.1 37.6 74 -1 30.1
20:30 1012 29.88 841 24.83 3.4 38.2 74 -0.7 30.7
20:35 1012 29.88 841 24.83 3.4 38.1 75 -0.5 31
20:40 1012 29.88 841 24.83 3.2 37.7 78 -0.3 31.5
20:45 1012 29.88 841 24.83 2.7 36.8 79 -0.7 30.7
20:50 1012 29.88 841 24.83 2.6 36.7 79 -0.6 30.8
20:55 1012 29.88 841 24.83 2.5 36.6 78 -0.8 30.5
21:00 1012 29.88 841 24.83 2.6 36.6 80 -0.6 30.9
21:05 1012 29.88 841 24.83 2.4 36.3 81 -0.4 31.2
21:10 1012 29.88 841 24.83 2.2 36 81 -0.7 30.8
21:15 1012 29.88 841 24.83 2.1 35.8 81 -0.7 30.7
21:20 1012 29.88 841 24.83 2.1 35.8 81 -0.8 30.5
21:25 1012 29.88 841 24.83 2.1 35.8 81 -0.8 30.5
21:30 1012 29.88 841 24.83 2.1 35.9 80 -0.9 30.4
21:35 1012 29.88 841 24.83 2.2 35.9 80 -0.8 30.5
21:40 1012 29.88 841 24.83 2.1 35.9 81 -0.8 30.5
21:45 1012 29.88 841 24.83 2.1 35.8 81 -0.9 30.5
21:50 1012 29.88 841 24.83 2.2 35.9 81 -0.8 30.6
21:55 1012 29.88 841 24.83 2.2 35.9 81 -0.8 30.5
22:00 1011 29.85 841 24.83 2.2 36 80 -0.9 30.4
22:05 1011 29.85 841 24.83 2.3 36.1 80 -0.8 30.5
22:10 1011 29.85 841 24.83 2.3 36.1 79 -1 30.3
22:15 1012 29.88 841 24.83 2.3 36.2 79 -0.9 30.4
22:20 1012 29.88 841 24.83 2.2 36 79 -1.1 30
22:25 1012 29.88 841 24.83 2.2 36 79 -1 30.1
22:30 1012 29.88 841 24.83 2.2 35.9 79 -1 30.2
22:35 1012 29.88 841 24.83 2.3 36.1 76 -1.5 29.3
22:40 1012 29.88 841 24.83 2.6 36.6 76 -1.2 29.8
22:45 1012 29.88 841 24.83 2.4 36.3 78 -1 30.2
22:50 1012 29.88 841 24.83 2.3 36.2 79 -0.9 30.3
22:55 1011 29.85 841 24.83 2.2 36 80 -0.9 30.3
23:00 1012 29.88 841 24.83 2.1 35.7 81 -0.9 30.3
23:05 1011 29.85 841 24.83 2 35.5 81 -1 30.2
23:10 1011 29.85 841 24.83 2 35.6 80 -1.2 29.9
23:15 1011 29.85 841 24.83 2 35.7 80 -1 30.1
23:20 1011 29.85 841 24.83 2 35.6 80 -1 30.1
23:25 1011 29.85 841 24.83 2 35.6 80 -1.2 29.9
23:30 1011 29.85 841 24.83 2 35.6 80 -1.1 30
23:35 1011 29.85 840 24.81 2 35.5 81 -1 30.2
23:40 1011 29.85 840 24.81 1.9 35.5 80 -1.2 29.9
23:45 1011 29.85 841 24.83 1.9 35.5 80 -1.1 30
23:50 1011 29.85 841 24.83 2 35.5 80 -1.2 29.9
23:55 1011 29.85 840 24.81 2 35.5 80 -1.1 30.1
24:00 1011 29.85 840 24.81 1.9 35.5 79 -1.3 29.6